createdAt,value
2022-10-14T00:00:17.978Z,7.58
2022-10-14T00:01:22.245Z,7.56
2022-10-14T00:02:24.595Z,7.56
2022-10-14T00:03:26.887Z,7.58
2022-10-14T00:04:29.479Z,7.57
2022-10-14T00:05:31.973Z,7.47
2022-10-14T00:06:34.653Z,7.34
2022-10-14T00:07:37.366Z,7.41
2022-10-14T00:08:40.277Z,7.53
2022-10-14T00:09:42.173Z,7.58
2022-10-14T00:10:44.169Z,7.55
2022-10-14T00:11:46.151Z,7.46
2022-10-14T00:12:48.198Z,7.46
2022-10-14T00:13:52.641Z,7.48
2022-10-14T00:14:55.386Z,7.47
2022-10-14T00:15:57.301Z,7.47
2022-10-14T00:16:59.300Z,7.43
2022-10-14T00:18:01.181Z,7.40
2022-10-14T00:19:05.167Z,7.42
2022-10-14T00:20:08.375Z,7.41
2022-10-14T00:21:10.418Z,7.34
2022-10-14T00:22:12.494Z,7.40
2022-10-14T00:23:14.389Z,7.43
2022-10-14T00:24:16.763Z,7.45
2022-10-14T00:25:18.649Z,7.42
2022-10-14T00:26:26.026Z,7.43
2022-10-14T00:27:27.944Z,7.43
2022-10-14T00:28:30.355Z,7.46
2022-10-14T00:29:32.454Z,7.42
2022-10-14T00:30:34.446Z,7.45
2022-10-14T00:31:36.484Z,7.44
2022-10-14T00:32:38.373Z,7.44
2022-10-14T00:33:40.474Z,7.39
2022-10-14T00:34:43.386Z,7.43
2022-10-14T00:35:53.995Z,7.47
2022-10-14T00:36:56.056Z,7.44
2022-10-14T00:37:58.656Z,7.45
2022-10-14T00:39:00.888Z,7.43
2022-10-14T00:40:04.672Z,7.44
2022-10-14T00:41:07.084Z,7.44
2022-10-14T00:42:14.645Z,7.45
2022-10-14T00:43:16.688Z,7.43
2022-10-14T00:44:22.660Z,7.44
2022-10-14T00:45:24.865Z,7.43
2022-10-14T00:46:30.386Z,7.43
2022-10-14T00:47:33.159Z,7.44
2022-10-14T00:48:35.433Z,7.44
2022-10-14T00:49:40.667Z,7.45
2022-10-14T00:50:44.720Z,7.45
2022-10-14T00:51:50.416Z,7.44
2022-10-14T00:52:52.540Z,7.43
2022-10-14T00:53:55.522Z,7.44
2022-10-14T00:55:06.809Z,7.45
2022-10-14T00:56:10.421Z,7.47
2022-10-14T00:57:13.462Z,7.43
2022-10-14T00:58:15.905Z,7.43
2022-10-14T00:59:18.449Z,7.43
2022-10-14T01:00:21.978Z,7.43
2022-10-14T01:01:24.375Z,7.43
2022-10-14T01:02:26.497Z,7.44
2022-10-14T01:03:28.519Z,7.44
2022-10-14T01:04:30.968Z,7.44
2022-10-14T01:05:36.637Z,7.46
2022-10-14T01:06:48.145Z,7.46
2022-10-14T01:08:06.060Z,7.43
2022-10-14T01:09:26.518Z,7.41
2022-10-14T01:10:35.397Z,7.45
2022-10-14T01:12:23.466Z,7.47
2022-10-14T01:14:26.463Z,7.56
2022-10-14T01:15:32.286Z,7.45
2022-10-14T01:16:46.736Z,7.47
2022-10-14T01:18:04.210Z,7.44
2022-10-14T01:19:10.173Z,7.50
2022-10-14T01:20:39.323Z,7.51
2022-10-14T01:22:03.120Z,7.53
2022-10-14T01:23:11.855Z,7.58
2022-10-14T01:24:23.608Z,7.59
2022-10-14T01:25:46.503Z,7.59
2022-10-14T01:26:58.345Z,7.56
2022-10-14T01:28:30.190Z,7.48
2022-10-14T01:30:08.207Z,7.45
2022-10-14T01:31:16.748Z,7.44
2022-10-14T01:33:36.573Z,7.51
2022-10-14T01:36:11.031Z,7.52
2022-10-14T01:37:16.819Z,7.44
2022-10-14T01:38:22.493Z,7.39
2022-10-14T01:39:34.500Z,7.41
2022-10-14T01:40:49.616Z,7.46
2022-10-14T01:42:07.194Z,7.48
2022-10-14T01:43:11.846Z,7.48
2022-10-14T01:44:17.454Z,7.45
2022-10-14T01:45:22.802Z,7.46
2022-10-14T01:46:26.905Z,7.46
2022-10-14T01:47:32.287Z,7.39
2022-10-14T01:48:37.902Z,7.32
2022-10-14T01:49:43.597Z,7.14
2022-10-14T01:50:49.252Z,7.08
2022-10-14T01:51:54.936Z,7.15
2022-10-14T01:53:13.036Z,7.19
2022-10-14T01:54:18.754Z,7.24
2022-10-14T01:55:24.460Z,7.27
2022-10-14T01:56:30.356Z,7.32
2022-10-14T01:57:35.562Z,7.27
2022-10-14T01:58:39.853Z,7.29
2022-10-14T01:59:43.485Z,7.33
2022-10-14T02:00:45.654Z,7.35
2022-10-14T02:01:47.689Z,7.42
2022-10-14T02:02:49.901Z,7.39
2022-10-14T02:03:51.784Z,7.39
2022-10-14T02:04:53.659Z,7.38
2022-10-14T02:06:02.427Z,7.38
2022-10-14T02:07:17.267Z,7.38
2022-10-14T02:08:35.277Z,7.39
2022-10-14T02:10:08.244Z,7.40
2022-10-14T02:11:17.012Z,7.42
2022-10-14T02:12:28.754Z,7.40
2022-10-14T02:13:54.588Z,7.43
2022-10-14T02:15:15.180Z,7.41
2022-10-14T02:16:32.875Z,7.40
2022-10-14T02:17:44.790Z,7.39
2022-10-14T02:19:22.248Z,7.39
2022-10-14T02:20:31.054Z,7.41
2022-10-14T02:21:39.542Z,7.44
2022-10-14T02:22:45.435Z,7.47
2022-10-14T02:23:51.420Z,7.45
2022-10-14T02:24:57.154Z,7.48
2022-10-14T02:26:01.249Z,7.50
2022-10-14T02:27:06.980Z,7.51
2022-10-14T02:28:12.663Z,7.52
2022-10-14T02:29:17.504Z,7.50
2022-10-14T02:30:20.983Z,7.49
2022-10-14T02:31:25.847Z,7.47
2022-10-14T02:32:29.012Z,7.50
2022-10-14T02:33:34.696Z,7.48
2022-10-14T02:34:37.444Z,7.54
2022-10-14T02:35:41.380Z,7.47
2022-10-14T02:36:45.711Z,7.41
2022-10-14T02:37:49.380Z,7.38
2022-10-14T02:38:54.811Z,7.32
2022-10-14T02:40:15.507Z,7.34
2022-10-14T02:41:20.466Z,7.32
2022-10-14T02:42:22.777Z,7.29
2022-10-14T02:43:25.396Z,7.28
2022-10-14T02:44:27.483Z,7.28
2022-10-14T02:45:29.575Z,7.28
2022-10-14T02:46:32.949Z,7.27
2022-10-14T02:47:34.971Z,7.28
2022-10-14T02:48:37.366Z,7.31
2022-10-14T02:49:39.288Z,7.29
2022-10-14T02:50:41.692Z,7.27
2022-10-14T02:51:43.779Z,7.28
2022-10-14T02:52:46.508Z,7.26
2022-10-14T02:53:48.581Z,7.31
2022-10-14T02:54:50.468Z,7.28
2022-10-14T02:55:52.329Z,7.35
2022-10-14T02:56:54.608Z,7.39
2022-10-14T02:57:56.661Z,7.41
2022-10-14T02:58:59.200Z,7.44
2022-10-14T03:00:01.409Z,7.40
2022-10-14T03:01:03.351Z,7.40
2022-10-14T03:02:06.702Z,7.38
2022-10-14T03:03:09.105Z,7.40
2022-10-14T03:04:11.078Z,7.44
2022-10-14T03:05:13.119Z,7.34
2022-10-14T03:06:15.338Z,7.33
2022-10-14T03:07:17.436Z,7.35
2022-10-14T03:08:19.482Z,7.32
2022-10-14T03:09:21.339Z,7.34
2022-10-14T03:10:23.536Z,7.33
2022-10-14T03:11:25.413Z,7.20
2022-10-14T03:12:27.319Z,7.37
2022-10-14T03:13:29.732Z,7.33
2022-10-14T03:14:31.943Z,7.35
2022-10-14T03:15:33.936Z,7.37
2022-10-14T03:16:36.031Z,7.36
2022-10-14T03:17:38.020Z,7.37
2022-10-14T03:18:39.905Z,7.32
2022-10-14T03:19:42.324Z,7.32
2022-10-14T03:20:45.488Z,7.38
2022-10-14T03:21:47.455Z,7.40
2022-10-14T03:22:49.565Z,7.45
2022-10-14T03:23:51.518Z,7.43
2022-10-14T03:24:53.733Z,7.39
2022-10-14T03:25:55.850Z,7.42
2022-10-14T03:26:58.150Z,7.42
2022-10-14T03:28:00.303Z,7.41
2022-10-14T03:29:02.189Z,7.39
2022-10-14T03:30:05.302Z,7.40
2022-10-14T03:31:07.496Z,7.33
2022-10-14T03:32:09.440Z,7.33
2022-10-14T03:33:14.755Z,7.41
2022-10-14T03:34:15.140Z,7.38
2022-10-14T03:35:17.264Z,7.37
2022-10-14T03:36:19.353Z,7.38
2022-10-14T03:37:21.306Z,7.33
2022-10-14T03:38:23.424Z,7.19
2022-10-14T03:39:25.320Z,7.19
2022-10-14T03:40:27.569Z,7.20
2022-10-14T03:41:29.812Z,7.23
2022-10-14T03:42:31.702Z,7.23
2022-10-14T03:43:33.891Z,7.24
2022-10-14T03:44:35.791Z,7.25
2022-10-14T03:45:37.920Z,7.31
2022-10-14T03:46:40.146Z,7.34
2022-10-14T03:47:42.044Z,7.34
2022-10-14T03:48:44.230Z,7.39
2022-10-14T03:49:46.354Z,7.25
2022-10-14T03:50:48.488Z,7.30
2022-10-14T03:51:50.725Z,7.28
2022-10-14T03:52:55.594Z,7.28
2022-10-14T03:53:56.428Z,7.31
2022-10-14T03:54:58.870Z,7.33
2022-10-14T03:56:01.086Z,7.30
2022-10-14T03:57:03.139Z,7.33
2022-10-14T03:58:05.229Z,7.37
2022-10-14T03:59:07.448Z,7.32
2022-10-14T04:00:12.936Z,7.28
2022-10-14T04:01:15.170Z,7.27
2022-10-14T04:02:17.062Z,7.31
2022-10-14T04:03:19.159Z,7.29
2022-10-14T04:04:21.075Z,7.31
2022-10-14T04:05:22.945Z,7.31
2022-10-14T04:06:24.972Z,7.35
2022-10-14T04:07:27.184Z,7.32
2022-10-14T04:08:29.176Z,7.30
2022-10-14T04:09:31.240Z,7.32
2022-10-14T04:10:33.777Z,7.29
2022-10-14T04:11:35.780Z,7.26
2022-10-14T04:12:37.749Z,7.35
2022-10-14T04:13:39.953Z,7.37
2022-10-14T04:14:41.879Z,7.28
2022-10-14T04:15:43.774Z,7.32
2022-10-14T04:16:49.635Z,7.17
2022-10-14T04:17:49.859Z,7.22
2022-10-14T04:18:52.490Z,7.33
2022-10-14T04:19:54.430Z,7.19
2022-10-14T04:21:05.558Z,7.34
2022-10-14T04:22:07.641Z,7.28
2022-10-14T04:23:09.655Z,7.37
2022-10-14T04:24:12.135Z,7.29
2022-10-14T04:25:14.202Z,7.31
2022-10-14T04:26:16.927Z,7.27
2022-10-14T04:27:18.793Z,7.33
2022-10-14T04:28:20.943Z,7.33
2022-10-14T04:29:23.375Z,7.31
2022-10-14T04:30:25.581Z,7.32
2022-10-14T04:31:27.688Z,7.33
2022-10-14T04:32:29.663Z,7.29
2022-10-14T04:33:31.551Z,7.28
2022-10-14T04:34:33.563Z,7.25
2022-10-14T04:35:35.489Z,7.27
2022-10-14T04:36:37.914Z,7.28
2022-10-14T04:37:40.232Z,7.28
2022-10-14T04:38:42.824Z,7.25
2022-10-14T04:39:45.380Z,7.23
2022-10-14T04:40:47.389Z,7.26
2022-10-14T04:41:49.297Z,7.30
2022-10-14T04:42:55.569Z,7.23
2022-10-14T04:43:58.755Z,7.21
2022-10-14T04:45:02.139Z,7.22
2022-10-14T04:46:04.426Z,7.16
2022-10-14T04:47:06.352Z,7.09
2022-10-14T04:48:08.403Z,7.16
2022-10-14T04:49:13.276Z,7.17
2022-10-14T04:50:17.382Z,7.09
2022-10-14T04:51:19.424Z,7.27
2022-10-14T04:52:23.624Z,7.28
2022-10-14T04:53:25.913Z,7.28
2022-10-14T04:54:27.796Z,7.28
2022-10-14T04:55:29.754Z,7.30
2022-10-14T04:56:31.741Z,7.33
2022-10-14T04:57:33.621Z,7.32
2022-10-14T04:58:35.735Z,7.34
2022-10-14T04:59:37.655Z,7.34
2022-10-14T05:00:41.525Z,7.34
2022-10-14T05:01:43.499Z,7.34
2022-10-14T05:02:45.850Z,7.33
2022-10-14T05:03:47.866Z,7.33
2022-10-14T05:04:49.742Z,7.36
2022-10-14T05:05:51.725Z,7.37
2022-10-14T05:06:53.809Z,7.47
2022-10-14T05:08:04.266Z,7.38
2022-10-14T05:09:07.323Z,7.34
2022-10-14T05:10:10.327Z,7.37
2022-10-14T05:11:13.472Z,7.38
2022-10-14T05:12:15.458Z,7.40
2022-10-14T05:13:18.070Z,7.34
2022-10-14T05:14:19.956Z,7.34
2022-10-14T05:15:22.278Z,7.41
2022-10-14T05:16:24.416Z,7.41
2022-10-14T05:17:26.510Z,7.45
2022-10-14T05:18:28.588Z,7.51
2022-10-14T05:19:30.608Z,7.52
2022-10-14T05:20:32.750Z,7.49
2022-10-14T05:21:34.696Z,7.51
2022-10-14T05:22:36.816Z,7.53
2022-10-14T05:23:38.818Z,7.53
2022-10-14T05:24:40.908Z,7.54
2022-10-14T05:25:42.810Z,7.55
2022-10-14T05:26:44.878Z,7.59
2022-10-14T05:27:46.773Z,7.61
2022-10-14T05:28:51.335Z,7.60
2022-10-14T05:29:53.601Z,7.62
2022-10-14T05:30:55.614Z,7.61
2022-10-14T05:31:57.528Z,7.68
2022-10-14T05:32:59.411Z,7.71
2022-10-14T05:34:01.389Z,7.69
2022-10-14T05:35:04.311Z,7.71
2022-10-14T05:36:07.629Z,7.68
2022-10-14T05:37:09.616Z,7.72
2022-10-14T05:38:13.227Z,7.79
2022-10-14T05:39:18.369Z,7.76
2022-10-14T05:40:21.908Z,7.75
2022-10-14T05:41:27.064Z,7.80
2022-10-14T05:42:29.247Z,7.80
2022-10-14T05:43:32.837Z,7.89
2022-10-14T05:44:35.174Z,7.85
2022-10-14T05:45:37.046Z,7.84
2022-10-14T05:46:39.071Z,7.83
2022-10-14T05:47:43.142Z,7.84
2022-10-14T05:48:45.053Z,7.90
2022-10-14T05:49:46.957Z,7.90
2022-10-14T05:50:49.061Z,7.90
2022-10-14T05:51:51.146Z,7.88
2022-10-14T05:52:53.017Z,7.91
2022-10-14T05:53:55.011Z,7.94
2022-10-14T05:54:56.882Z,7.99
2022-10-14T05:56:04.716Z,8.02
2022-10-14T05:57:06.777Z,7.97
2022-10-14T05:58:09.030Z,7.98
2022-10-14T05:59:13.026Z,8.03
2022-10-14T06:00:15.833Z,8.10
2022-10-14T06:01:17.722Z,8.08
2022-10-14T06:02:19.966Z,8.10
2022-10-14T06:03:22.264Z,8.12
2022-10-14T06:04:24.392Z,8.17
2022-10-14T06:05:26.997Z,8.25
2022-10-14T06:06:29.293Z,8.23
2022-10-14T06:07:31.339Z,8.18
2022-10-14T06:08:33.336Z,8.21
2022-10-14T06:09:36.505Z,8.22
2022-10-14T06:10:38.514Z,8.24
2022-10-14T06:11:40.698Z,7.86
2022-10-14T06:12:42.580Z,8.26
2022-10-14T06:13:44.488Z,8.29
2022-10-14T06:14:46.399Z,8.28
2022-10-14T06:15:48.422Z,8.28
2022-10-14T06:16:50.793Z,8.27
2022-10-14T06:17:52.881Z,8.25
2022-10-14T06:18:55.094Z,8.35
2022-10-14T06:19:56.995Z,8.30
2022-10-14T06:20:59.933Z,8.32
2022-10-14T06:22:01.826Z,8.35
2022-10-14T06:23:04.115Z,8.31
2022-10-14T06:24:06.722Z,8.36
2022-10-14T06:25:09.019Z,8.37
2022-10-14T06:26:12.219Z,8.39
2022-10-14T06:27:14.103Z,8.51
2022-10-14T06:28:16.018Z,8.53
2022-10-14T06:29:18.177Z,8.50
2022-10-14T06:30:20.880Z,8.50
2022-10-14T06:31:23.237Z,8.49
2022-10-14T06:32:25.312Z,8.54
2022-10-14T06:33:30.790Z,8.57
2022-10-14T06:34:34.353Z,8.59
2022-10-14T06:35:36.362Z,8.61
2022-10-14T06:36:38.361Z,8.63
2022-10-14T06:37:40.352Z,8.68
2022-10-14T06:38:42.599Z,8.66
2022-10-14T06:39:44.508Z,8.69
2022-10-14T06:40:52.286Z,8.69
2022-10-14T06:41:54.264Z,8.60
2022-10-14T06:42:57.966Z,8.63
2022-10-14T06:44:00.038Z,8.64
2022-10-14T06:45:02.149Z,8.70
2022-10-14T06:46:04.847Z,8.78
2022-10-14T06:47:06.996Z,8.85
2022-10-14T06:48:09.015Z,8.86
2022-10-14T06:49:11.128Z,8.87
2022-10-14T06:50:13.116Z,8.79
2022-10-14T06:51:15.404Z,8.98
2022-10-14T06:52:18.108Z,8.91
2022-10-14T06:53:21.152Z,9.01
2022-10-14T06:54:23.333Z,9.05
2022-10-14T06:55:25.540Z,9.14
2022-10-14T06:56:27.570Z,9.15
2022-10-14T06:57:29.549Z,9.18
2022-10-14T06:58:32.482Z,9.25
2022-10-14T06:59:34.443Z,9.32
2022-10-14T07:00:36.622Z,9.32
2022-10-14T07:01:38.873Z,9.36
2022-10-14T07:02:41.128Z,9.44
2022-10-14T07:03:43.066Z,9.51
2022-10-14T07:04:45.057Z,9.54
2022-10-14T07:05:47.096Z,9.63
2022-10-14T07:06:49.282Z,9.67
2022-10-14T07:07:51.355Z,9.80
2022-10-14T07:08:53.302Z,9.82
2022-10-14T07:09:55.296Z,9.83
2022-10-14T07:10:57.760Z,9.90
2022-10-14T07:11:59.974Z,9.94
2022-10-14T07:13:02.375Z,10.07
2022-10-14T07:14:04.284Z,10.19
2022-10-14T07:15:07.426Z,10.14
2022-10-14T07:16:09.745Z,10.12
2022-10-14T07:17:13.021Z,10.16
2022-10-14T07:18:15.387Z,10.21
2022-10-14T07:19:17.364Z,10.18
2022-10-14T07:20:19.411Z,10.13
2022-10-14T07:21:21.467Z,10.19
2022-10-14T07:22:23.844Z,10.15
2022-10-14T07:23:26.187Z,10.15
2022-10-14T07:24:28.216Z,10.19
2022-10-14T07:25:30.299Z,10.20
2022-10-14T07:26:32.586Z,10.28
2022-10-14T07:27:34.767Z,10.31
2022-10-14T07:28:36.847Z,10.51
2022-10-14T07:29:38.894Z,10.63
2022-10-14T07:30:41.097Z,10.78
2022-10-14T07:31:43.589Z,10.82
2022-10-14T07:32:45.691Z,10.79
2022-10-14T07:33:47.803Z,10.87
2022-10-14T07:34:51.338Z,10.87
2022-10-14T07:35:53.526Z,10.88
2022-10-14T07:36:55.544Z,10.93
2022-10-14T07:37:58.667Z,10.91
2022-10-14T07:39:00.880Z,10.88
2022-10-14T07:40:04.780Z,10.99
2022-10-14T07:41:09.989Z,10.94
2022-10-14T07:42:12.031Z,10.93
2022-10-14T07:43:14.151Z,10.82
2022-10-14T07:44:16.548Z,11.45
2022-10-14T07:45:18.552Z,11.65
2022-10-14T07:46:23.472Z,11.69
2022-10-14T07:47:25.393Z,11.67
2022-10-14T07:48:38.496Z,11.64
2022-10-14T07:49:33.715Z,11.62
2022-10-14T07:50:35.713Z,11.59
2022-10-14T07:51:38.853Z,11.59
2022-10-14T07:52:40.745Z,11.50
2022-10-14T07:53:42.682Z,11.50
2022-10-14T07:54:45.363Z,11.40
2022-10-14T07:55:47.357Z,11.42
2022-10-14T07:56:49.860Z,11.39
2022-10-14T07:57:51.756Z,11.40
2022-10-14T07:58:54.854Z,11.40
2022-10-14T07:59:56.843Z,11.41
2022-10-14T08:00:59.041Z,11.44
2022-10-14T08:02:01.328Z,11.38
2022-10-14T08:03:03.579Z,11.46
2022-10-14T08:04:05.472Z,11.44
2022-10-14T08:05:32.980Z,11.48
2022-10-14T08:06:12.923Z,11.53
2022-10-14T08:07:14.858Z,11.60
2022-10-14T08:08:17.916Z,11.64
2022-10-14T08:09:20.541Z,11.67
2022-10-14T08:10:22.852Z,11.56
2022-10-14T08:11:27.356Z,11.63
2022-10-14T08:12:29.726Z,11.60
2022-10-14T08:13:32.715Z,11.55
2022-10-14T08:14:34.625Z,11.54
2022-10-14T08:15:39.245Z,11.68
2022-10-14T08:16:41.271Z,11.65
2022-10-14T08:17:43.605Z,11.65
2022-10-14T08:18:47.263Z,11.69
2022-10-14T08:19:50.251Z,11.61
2022-10-14T08:20:52.671Z,11.70
2022-10-14T08:21:54.558Z,11.71
2022-10-14T08:22:56.459Z,11.75
2022-10-14T08:23:58.639Z,11.71
2022-10-14T08:25:00.508Z,11.81
2022-10-14T08:26:03.456Z,11.79
2022-10-14T08:27:05.383Z,11.72
2022-10-14T08:28:07.909Z,11.71
2022-10-14T08:29:10.711Z,11.78
2022-10-14T08:30:12.895Z,11.80
2022-10-14T08:31:17.167Z,11.78
2022-10-14T08:32:19.387Z,11.81
2022-10-14T08:33:21.692Z,11.79
2022-10-14T08:34:23.772Z,11.78
2022-10-14T08:35:25.805Z,11.75
2022-10-14T08:36:28.179Z,11.73
2022-10-14T08:37:30.139Z,11.77
2022-10-14T08:38:32.426Z,11.55
2022-10-14T08:39:34.338Z,11.55
2022-10-14T08:41:15.175Z,11.56
2022-10-14T08:42:24.338Z,11.47
2022-10-14T08:43:47.158Z,11.47
2022-10-14T08:44:52.835Z,11.57
2022-10-14T08:45:58.526Z,11.53
2022-10-14T08:47:04.206Z,11.65
2022-10-14T08:48:12.772Z,11.70
2022-10-14T08:49:40.019Z,11.73
2022-10-14T08:52:10.767Z,12.01
2022-10-14T08:53:25.956Z,12.01
2022-10-14T08:54:43.192Z,12.23
2022-10-14T08:55:48.499Z,12.23
2022-10-14T08:56:51.962Z,12.25
2022-10-14T08:58:00.421Z,12.23
2022-10-14T08:59:09.151Z,12.15
2022-10-14T09:00:13.371Z,12.11
2022-10-14T09:01:19.472Z,12.14
2022-10-14T09:02:45.886Z,12.15
2022-10-14T09:03:48.816Z,12.08
2022-10-14T09:04:50.903Z,12.08
2022-10-14T09:05:58.795Z,12.06
2022-10-14T09:07:02.527Z,11.96
2022-10-14T09:08:05.432Z,12.00
2022-10-14T09:09:28.160Z,12.02
2022-10-14T09:10:33.460Z,12.13
2022-10-14T09:11:42.070Z,12.24
2022-10-14T09:12:44.644Z,12.24
2022-10-14T09:13:50.395Z,12.07
2022-10-14T09:15:05.273Z,12.14
2022-10-14T09:17:24.935Z,12.31
2022-10-14T09:18:36.261Z,12.22
2022-10-14T09:19:39.874Z,12.25
2022-10-14T09:20:43.203Z,12.23
2022-10-14T09:21:53.894Z,12.32
2022-10-14T09:23:05.440Z,12.34
2022-10-14T09:24:17.212Z,12.31
2022-10-14T09:25:19.222Z,12.24
2022-10-14T09:26:21.198Z,12.26
2022-10-14T09:27:23.923Z,12.36
2022-10-14T09:28:42.063Z,12.32
2022-10-14T09:29:56.910Z,12.38
2022-10-14T09:30:59.081Z,12.31
2022-10-14T09:32:07.230Z,12.35
2022-10-14T09:33:12.968Z,12.36
2022-10-14T09:34:20.270Z,12.31
2022-10-14T09:35:32.224Z,12.34
2022-10-14T09:36:34.344Z,12.32
2022-10-14T09:37:36.551Z,12.36
2022-10-14T09:38:38.651Z,12.33
2022-10-14T09:39:41.113Z,12.21
2022-10-14T09:40:46.592Z,12.25
2022-10-14T09:41:52.297Z,12.35
2022-10-14T09:43:06.846Z,12.16
2022-10-14T09:44:18.953Z,12.37
2022-10-14T09:45:23.613Z,12.45
2022-10-14T09:46:25.913Z,12.45
2022-10-14T09:47:28.430Z,12.49
2022-10-14T09:48:45.875Z,12.36
2022-10-14T09:49:48.112Z,12.46
2022-10-14T09:50:53.921Z,12.49
2022-10-14T09:51:56.749Z,12.44
2022-10-14T09:53:09.252Z,12.53
2022-10-14T09:54:12.536Z,12.51
2022-10-14T09:55:18.208Z,12.54
2022-10-14T09:56:41.588Z,12.50
2022-10-14T09:57:42.023Z,12.47
2022-10-14T09:58:47.126Z,12.51
2022-10-14T09:59:52.719Z,12.52
2022-10-14T10:00:56.894Z,12.38
2022-10-14T10:02:02.298Z,12.49
2022-10-14T10:03:05.416Z,12.47
2022-10-14T10:04:32.663Z,12.49
2022-10-14T10:05:35.571Z,12.52
2022-10-14T10:06:41.349Z,12.66
2022-10-14T10:07:43.477Z,12.60
2022-10-14T10:08:58.880Z,12.58
2022-10-14T10:10:04.077Z,12.52
2022-10-14T10:12:38.813Z,12.69
2022-10-14T10:13:43.960Z,12.57
2022-10-14T10:14:49.640Z,12.36
2022-10-14T10:15:58.324Z,12.60
2022-10-14T10:17:13.289Z,12.60
2022-10-14T10:18:18.989Z,12.64
2022-10-14T10:19:27.456Z,12.48
2022-10-14T10:20:30.366Z,12.45
2022-10-14T10:21:32.522Z,12.60
2022-10-14T10:22:34.820Z,12.66
2022-10-14T10:23:41.289Z,12.66
2022-10-14T10:24:46.304Z,12.72
2022-10-14T10:25:48.531Z,12.68
2022-10-14T10:26:51.049Z,12.72
2022-10-14T10:27:56.647Z,12.81
2022-10-14T10:29:02.278Z,12.85
2022-10-14T10:30:19.884Z,12.89
2022-10-14T10:31:29.051Z,12.81
2022-10-14T10:32:37.863Z,12.75
2022-10-14T10:33:52.574Z,12.74
2022-10-14T10:35:07.495Z,12.72
2022-10-14T10:36:14.498Z,12.63
2022-10-14T10:37:38.161Z,12.55
2022-10-14T10:39:18.900Z,12.67
2022-10-14T10:40:27.735Z,12.59
2022-10-14T10:42:02.389Z,12.69
2022-10-14T10:43:08.441Z,12.67
2022-10-14T10:44:16.917Z,12.77
2022-10-14T10:45:51.912Z,12.78
2022-10-14T10:47:04.006Z,12.81
2022-10-14T10:48:15.473Z,12.90
2022-10-14T10:49:47.444Z,12.98
2022-10-14T10:50:53.397Z,12.89
2022-10-14T10:53:21.102Z,12.85
2022-10-14T10:54:35.341Z,12.74
2022-10-14T10:55:58.927Z,12.73
2022-10-14T10:57:11.446Z,12.74
2022-10-14T10:58:37.310Z,12.79
2022-10-14T10:59:48.531Z,12.82
2022-10-14T11:00:58.402Z,12.86
2022-10-14T11:02:21.169Z,12.86
2022-10-14T11:03:30.373Z,12.90
2022-10-14T11:04:57.033Z,12.90
2022-10-14T11:06:30.499Z,12.88
2022-10-14T11:07:45.294Z,12.91
2022-10-14T11:08:56.922Z,12.82
2022-10-14T11:10:15.186Z,12.73
2022-10-14T11:11:42.640Z,12.68
2022-10-14T11:12:54.270Z,12.69
2022-10-14T11:14:12.050Z,12.70
2022-10-14T11:15:33.238Z,12.69
2022-10-14T11:16:57.371Z,12.62
2022-10-14T11:18:06.366Z,12.56
2022-10-14T11:19:21.157Z,12.54
2022-10-14T11:20:45.214Z,12.50
2022-10-14T11:22:21.902Z,12.48
2022-10-14T11:23:50.796Z,12.43
2022-10-14T11:25:16.592Z,12.44
2022-10-14T11:26:39.282Z,12.51
2022-10-14T11:27:45.063Z,12.65
2022-10-14T11:29:03.279Z,12.68
2022-10-14T11:30:17.879Z,12.71
2022-10-14T11:31:35.844Z,12.70
2022-10-14T11:32:41.521Z,12.70
2022-10-14T11:34:20.653Z,12.69
2022-10-14T11:35:29.448Z,12.75
2022-10-14T11:36:41.265Z,12.81
2022-10-14T11:38:06.769Z,12.87
2022-10-14T11:39:30.683Z,12.89
2022-10-14T11:40:55.529Z,12.87
2022-10-14T11:43:24.878Z,13.02
2022-10-14T11:45:42.509Z,12.78
2022-10-14T11:46:48.286Z,12.86
2022-10-14T11:47:52.801Z,12.89
2022-10-14T11:49:01.228Z,12.87
2022-10-14T11:50:07.171Z,12.84
2022-10-14T11:51:12.933Z,12.94
2022-10-14T11:52:21.519Z,12.87
2022-10-14T11:53:46.627Z,12.38
2022-10-14T11:54:52.369Z,12.73
2022-10-14T11:56:04.016Z,12.46
2022-10-14T11:57:25.287Z,12.35
2022-10-14T11:58:30.523Z,12.30
2022-10-14T12:00:02.033Z,12.20
2022-10-14T12:01:17.794Z,12.75
2022-10-14T12:02:29.457Z,12.78
2022-10-14T12:03:38.240Z,12.81
2022-10-14T12:04:43.861Z,12.68
2022-10-14T12:05:52.621Z,12.69
2022-10-14T12:07:04.589Z,12.79
2022-10-14T12:08:30.419Z,12.91
2022-10-14T12:09:41.095Z,12.90
2022-10-14T12:10:44.927Z,12.83
2022-10-14T12:11:50.790Z,12.83
2022-10-14T12:12:55.104Z,12.60
2022-10-14T12:14:22.286Z,12.53
2022-10-14T12:15:26.244Z,12.64
2022-10-14T12:16:29.007Z,12.84
2022-10-14T12:17:37.584Z,12.84
2022-10-14T12:18:41.770Z,12.90
2022-10-14T12:19:44.177Z,12.88
2022-10-14T12:21:02.117Z,12.82
2022-10-14T12:22:07.841Z,12.88
2022-10-14T12:23:13.521Z,12.91
2022-10-14T12:24:22.351Z,12.86
2022-10-14T12:25:27.984Z,12.88
2022-10-14T12:26:39.116Z,13.01
2022-10-14T12:27:41.434Z,13.02
2022-10-14T12:28:43.877Z,13.01
2022-10-14T12:29:49.068Z,13.06
2022-10-14T12:30:51.099Z,12.89
2022-10-14T12:32:08.992Z,12.98
2022-10-14T12:33:14.077Z,12.95
2022-10-14T12:34:33.265Z,12.97
2022-10-14T12:35:56.119Z,12.89
2022-10-14T12:36:58.196Z,12.92
2022-10-14T12:38:02.548Z,12.96
2022-10-14T12:39:20.307Z,12.90
2022-10-14T12:40:25.824Z,12.88
2022-10-14T12:41:40.049Z,12.91
2022-10-14T12:42:45.725Z,12.90
2022-10-14T12:44:03.323Z,12.93
2022-10-14T12:45:24.099Z,12.94
2022-10-14T12:46:26.405Z,12.85
2022-10-14T12:47:34.378Z,12.83
2022-10-14T12:48:40.458Z,12.85
2022-10-14T12:49:46.220Z,12.81
2022-10-14T12:50:51.518Z,12.65
2022-10-14T12:51:56.294Z,12.60
2022-10-14T12:53:01.624Z,12.60
2022-10-14T12:54:07.305Z,12.61
2022-10-14T12:55:21.634Z,12.63
2022-10-14T12:56:36.592Z,12.63
2022-10-14T12:57:41.646Z,12.63
2022-10-14T12:58:58.544Z,12.66
2022-10-14T13:00:03.791Z,12.69
2022-10-14T13:01:15.562Z,12.72
2022-10-14T13:02:39.932Z,12.73
2022-10-14T13:03:45.388Z,12.79
2022-10-14T13:06:27.106Z,12.95
2022-10-14T13:07:40.073Z,12.83
2022-10-14T13:08:36.920Z,12.85
2022-10-14T13:09:38.934Z,12.80
2022-10-14T13:10:46.790Z,12.79
2022-10-14T13:11:57.431Z,12.80
2022-10-14T13:12:59.848Z,12.80
2022-10-14T13:14:01.951Z,12.64
2022-10-14T13:15:16.746Z,12.65
2022-10-14T13:16:28.833Z,12.70
2022-10-14T13:17:45.610Z,12.72
2022-10-14T13:18:53.610Z,12.68
2022-10-14T13:19:55.982Z,12.65
2022-10-14T13:20:58.380Z,12.61
2022-10-14T13:22:05.124Z,12.64
2022-10-14T13:23:29.498Z,12.59
2022-10-14T13:24:34.932Z,12.56
2022-10-14T13:25:36.856Z,12.58
2022-10-14T13:26:42.691Z,12.58
2022-10-14T13:27:54.232Z,12.58
2022-10-14T13:29:00.002Z,12.56
2022-10-14T13:30:17.824Z,12.55
2022-10-14T13:31:23.506Z,12.57
2022-10-14T13:32:32.351Z,12.55
2022-10-14T13:33:38.555Z,12.58
2022-10-14T13:34:52.309Z,12.57
2022-10-14T13:36:03.756Z,12.57
2022-10-14T13:37:18.436Z,12.58
2022-10-14T13:38:22.889Z,12.57
2022-10-14T13:39:25.428Z,12.55
2022-10-14T13:40:49.349Z,12.53
2022-10-14T13:41:51.285Z,12.51
2022-10-14T13:42:58.898Z,12.51
2022-10-14T13:44:01.942Z,12.47
2022-10-14T13:45:07.857Z,12.46
2022-10-14T13:46:16.884Z,12.43
2022-10-14T13:47:21.525Z,12.44
2022-10-14T13:49:46.407Z,12.51
2022-10-14T13:50:51.383Z,12.42
2022-10-14T13:52:09.099Z,12.45
2022-10-14T13:53:17.273Z,12.41
2022-10-14T13:54:25.464Z,12.41
2022-10-14T13:55:27.476Z,12.38
2022-10-14T13:56:31.823Z,12.37
2022-10-14T13:58:11.409Z,12.35
2022-10-14T13:58:40.907Z,12.32
2022-10-14T14:00:11.601Z,12.32
2022-10-14T14:00:59.586Z,12.30
2022-10-14T14:02:02.776Z,12.33
2022-10-14T14:03:11.125Z,12.34
2022-10-14T14:04:19.902Z,12.34
2022-10-14T14:05:23.126Z,12.30
2022-10-14T14:06:32.310Z,12.28
2022-10-14T14:07:59.643Z,12.26
2022-10-14T14:09:00.277Z,12.25
2022-10-14T14:10:06.260Z,12.26
2022-10-14T14:11:16.697Z,12.22
2022-10-14T14:12:13.268Z,12.20
2022-10-14T14:13:15.759Z,12.19
2022-10-14T14:14:36.518Z,12.15
2022-10-14T14:15:39.143Z,12.17
2022-10-14T14:17:49.900Z,12.06
2022-10-14T14:19:03.803Z,11.97
2022-10-14T14:19:56.290Z,11.94
2022-10-14T14:20:58.799Z,11.95
2022-10-14T14:22:26.655Z,11.94
2022-10-14T14:23:29.659Z,11.88
2022-10-14T14:24:31.868Z,11.73
2022-10-14T14:25:35.830Z,11.70
2022-10-14T14:26:39.023Z,11.66
2022-10-14T14:27:47.494Z,11.67
2022-10-14T14:28:49.489Z,11.68
2022-10-14T14:29:54.512Z,11.60
2022-10-14T14:30:56.640Z,11.57
2022-10-14T14:32:06.633Z,11.55
2022-10-14T14:33:08.456Z,11.52
2022-10-14T14:34:16.395Z,11.40
2022-10-14T14:35:22.066Z,11.40
2022-10-14T14:36:27.846Z,11.34
2022-10-14T14:38:37.896Z,11.22
2022-10-14T14:39:39.966Z,11.23
2022-10-14T14:40:42.168Z,11.20
2022-10-14T14:41:47.832Z,11.17
2022-10-14T14:42:53.417Z,11.10
2022-10-14T14:45:18.354Z,11.11